Disclaimer

Please do not use the information listed here in-flight or in-navigation, as they are not provided to us by the airports but are provided by volunteers, so they might be outdated.

Search


Regions


Airport information page

No radio frequency information is available.

Airport informations:
Latitude: 49° 58' 17.51" N
Longitude: 002° 41' 51.58" E
Elevation: 364 feet - 111 meters
Operating hours: NO OPERATING HOURS LISTED
Operating agency: Civil government, landing fees and diplomatic clearance may be required
Timezone: UTC+1(+2DT) - Last Sunday in March to last Sunday in October
Fuel: N/A

Runway information:
09/27 - 3838 x 82 feet< - >1170 x 25 meters

Recent METARs:
LFAQ 172030Z AUTO 05010KT 9999 ////// 03/02 Q1025
LFAQ 172100Z AUTO 04011KT 9999 ////// 03/01 Q1025
LFAQ 172130Z AUTO 05012KT 9999 ////// 03/01 Q1025

Airport on the map: